Time;durP1;ratioP1;P1;durP2;ratioP2;P2;SDS_P1;SDS_P2;PMS_P1;PMS_P2;Temp;Humidity;BMP_temperature;BMP_pressure;BME280_temperature;BME280_humidity;BME280_pressure;Samples;Min_cycle;Max_cycle;Signal;HPM_P1;HPM_P2
2021/05/08 00:02:00;;;;;;;7.50;3.95;;;3.50;99.90;;;;;;5009695;28;20034;-51
2021/05/08 00:04:27;;;;;;;7.65;3.80;;;3.50;99.90;;;;;;5009858;28;20089;-48
2021/05/08 00:06:53;;;;;;;5.28;4.10;;;3.50;99.90;;;;;;5010451;28;20026;-47
2021/05/08 00:09:18;;;;;;;11.30;4.53;;;3.40;99.90;;;;;;5007993;28;20056;-51
2021/05/08 00:11:44;;;;;;;6.22;3.50;;;3.40;99.90;;;;;;5007018;28;20057;-48
2021/05/08 00:14:10;;;;;;;6.68;4.22;;;3.30;99.90;;;;;;5008838;28;20274;-50
2021/05/08 00:16:37;;;;;;;12.02;3.70;;;3.30;99.90;;;;;;5008960;28;20030;-50
2021/05/08 00:19:03;;;;;;;5.03;3.38;;;3.40;99.90;;;;;;5009241;28;20480;-49
2021/05/08 00:21:28;;;;;;;7.07;3.72;;;3.40;99.90;;;;;;5008194;28;20018;-49
2021/05/08 00:23:54;;;;;;;7.63;4.15;;;3.30;99.90;;;;;;5006884;28;20034;-49
2021/05/08 00:26:20;;;;;;;9.38;4.28;;;3.30;99.90;;;;;;5005127;28;20030;-50
2021/05/08 00:28:46;;;;;;;7.82;4.30;;;3.30;99.90;;;;;;5006405;28;20475;-48
2021/05/08 00:31:12;;;;;;;7.65;3.63;;;3.20;99.90;;;;;;5005941;28;20507;-47
2021/05/08 00:33:37;;;;;;;7.68;4.47;;;3.20;99.90;;;;;;5005987;28;20472;-54
2021/05/08 00:36:05;;;;;;;6.65;3.42;;;3.20;99.90;;;;;;5006231;28;20557;-48
2021/05/08 00:38:30;;;;;;;8.13;4.22;;;3.20;99.90;;;;;;5004655;28;20053;-49
2021/05/08 00:40:56;;;;;;;7.07;4.05;;;3.20;99.90;;;;;;5004742;28;20108;-51
2021/05/08 00:43:21;;;;;;;9.77;4.88;;;3.20;99.90;;;;;;5005288;28;20038;-47
2021/05/08 00:45:47;;;;;;;9.20;4.60;;;3.20;99.90;;;;;;5001932;28;20026;-53
2021/05/08 00:48:13;;;;;;;5.20;4.03;;;3.20;99.90;;;;;;5004895;28;20038;-48
2021/05/08 00:50:40;;;;;;;8.50;4.80;;;3.20;99.90;;;;;;5002335;28;20033;-50
2021/05/08 00:53:08;;;;;;;8.73;4.60;;;3.20;99.90;;;;;;5006738;28;20037;-48
2021/05/08 00:55:38;;;;;;;10.43;4.30;;;3.20;99.90;;;;;;5007176;28;20400;-52
2021/05/08 00:58:06;;;;;;;8.32;3.97;;;3.10;99.90;;;;;;5003720;28;20400;-50
2021/05/08 01:00:33;;;;;;;12.10;5.35;;;3.10;99.90;;;;;;5004314;28;20034;-55
2021/05/08 01:02:59;;;;;;;8.75;4.18;;;3.10;99.90;;;;;;5003572;28;20701;-49
2021/05/08 01:05:26;;;;;;;11.38;4.95;;;3.10;99.90;;;;;;5005596;28;20029;-48
2021/05/08 01:07:52;;;;;;;9.10;4.15;;;3.10;99.90;;;;;;5006954;28;20025;-49
2021/05/08 01:10:18;;;;;;;9.70;4.40;;;3.10;99.90;;;;;;5005672;28;20022;-50
2021/05/08 01:12:44;;;;;;;12.95;5.00;;;3.00;99.90;;;;;;5005610;28;20029;-49
2021/05/08 01:15:14;;;;;;;12.07;4.57;;;3.00;99.90;;;;;;5006201;28;20072;-52
2021/05/08 01:17:39;;;;;;;7.85;4.18;;;3.00;99.90;;;;;;5006356;28;20443;-47
2021/05/08 01:20:06;;;;;;;9.70;4.68;;;3.00;99.90;;;;;;5010610;28;20064;-48
2021/05/08 01:22:33;;;;;;;7.05;3.92;;;2.90;99.90;;;;;;5007157;28;20481;-48
2021/05/08 01:24:58;;;;;;;6.47;3.55;;;2.90;99.90;;;;;;5007513;28;20134;-52
2021/05/08 01:27:24;;;;;;;8.70;4.38;;;2.90;99.90;;;;;;5006313;28;20044;-55
2021/05/08 01:29:50;;;;;;;10.45;4.63;;;2.90;99.90;;;;;;5005854;28;20018;-50
2021/05/08 01:32:16;;;;;;;5.22;4.13;;;2.80;99.90;;;;;;5004882;28;21083;-48
2021/05/08 01:34:41;;;;;;;9.65;4.43;;;2.80;99.90;;;;;;5024527;23;20100;-51
2021/05/08 01:37:07;;;;;;;8.68;4.35;;;2.80;99.90;;;;;;4997597;28;20030;-51
2021/05/08 01:39:32;;;;;;;7.57;4.35;;;2.80;99.90;;;;;;5001005;28;20270;-53
2021/05/08 01:41:58;;;;;;;7.05;4.55;;;2.80;99.90;;;;;;5000038;28;20106;-51
2021/05/08 01:44:24;;;;;;;8.77;4.30;;;2.70;99.90;;;;;;4999831;28;20026;-52
2021/05/08 01:46:49;;;;;;;14.35;5.45;;;2.70;99.90;;;;;;5019321;28;20090;-52
2021/05/08 01:49:15;;;;;;;13.05;4.63;;;2.70;99.90;;;;;;5018551;28;20068;-52
2021/05/08 01:51:40;;;;;;;7.30;4.75;;;2.70;99.90;;;;;;5020613;28;20539;-50
2021/05/08 01:54:06;;;;;;;8.35;4.28;;;2.70;99.90;;;;;;5018103;28;20026;-52
2021/05/08 01:56:31;;;;;;;7.38;4.85;;;2.60;99.90;;;;;;5019258;28;20118;-51
2021/05/08 01:58:57;;;;;;;9.80;4.57;;;2.60;99.90;;;;;;5018367;28;20100;-51
2021/05/08 02:01:23;;;;;;;7.95;5.28;;;2.60;99.90;;;;;;5018652;28;20056;-51
2021/05/08 02:03:49;;;;;;;6.25;4.47;;;2.60;99.90;;;;;;5017698;28;20034;-51
2021/05/08 02:06:15;;;;;;;9.98;4.35;;;2.60;99.90;;;;;;5018465;28;20029;-53
2021/05/08 02:08:41;;;;;;;9.93;4.50;;;2.60;99.90;;;;;;5019061;28;20036;-50
2021/05/08 02:11:06;;;;;;;5.93;4.03;;;2.60;99.90;;;;;;5017617;28;20129;-51
2021/05/08 02:13:32;;;;;;;8.98;4.32;;;2.60;99.90;;;;;;5017045;28;20037;-51
2021/05/08 02:15:58;;;;;;;6.65;4.55;;;2.50;99.90;;;;;;5017710;28;20090;-52
2021/05/08 02:18:23;;;;;;;7.40;4.72;;;2.50;99.90;;;;;;5017599;28;20616;-53
2021/05/08 02:20:49;;;;;;;5.80;4.65;;;2.50;99.90;;;;;;5018493;28;20685;-50
2021/05/08 02:23:17;;;;;;;4.57;4.18;;;2.50;99.90;;;;;;5018665;28;20018;-53
2021/05/08 02:25:43;;;;;;;9.95;5.32;;;2.50;99.90;;;;;;5019070;28;20013;-51
2021/05/08 02:28:09;;;;;;;7.07;4.47;;;2.50;99.90;;;;;;5018298;28;20032;-51
2021/05/08 02:30:37;;;;;;;7.28;4.18;;;2.50;99.90;;;;;;5019012;28;20389;-50
2021/05/08 02:33:04;;;;;;;6.20;4.03;;;2.50;99.90;;;;;;5018791;28;20032;-51
2021/05/08 02:35:30;;;;;;;5.43;4.15;;;2.50;99.90;;;;;;5018301;28;20498;-52
2021/05/08 02:37:57;;;;;;;6.80;4.25;;;2.40;99.90;;;;;;5018256;28;20041;-50
2021/05/08 02:40:28;;;;;;;7.22;4.90;;;2.40;99.90;;;;;;5018309;28;20041;-50
2021/05/08 02:42:55;;;;;;;10.00;5.43;;;2.40;99.90;;;;;;5018888;28;20025;-50
2021/05/08 02:45:21;;;;;;;6.63;4.20;;;2.40;99.90;;;;;;5018751;28;20027;-52
2021/05/08 02:47:48;;;;;;;10.75;4.50;;;2.40;99.90;;;;;;5019542;28;20542;-50
2021/05/08 02:50:16;;;;;;;6.68;4.63;;;2.40;99.90;;;;;;5017325;28;20033;-52
2021/05/08 02:52:43;;;;;;;9.02;5.13;;;2.40;99.90;;;;;;5018103;28;20072;-50
2021/05/08 02:55:10;;;;;;;8.20;4.50;;;2.40;99.90;;;;;;5018022;28;20061;-52
2021/05/08 02:57:36;;;;;;;6.43;4.60;;;2.30;99.90;;;;;;5018029;28;20617;-50
2021/05/08 03:00:05;;;;;;;7.88;4.63;;;2.30;99.90;;;;;;5018673;28;20438;-50
2021/05/08 03:02:31;;;;;;;11.30;5.60;;;2.30;99.90;;;;;;5021937;28;20113;-51
2021/05/08 03:04:56;;;;;;;9.32;5.28;;;2.30;99.90;;;;;;5021486;28;20104;-51
2021/05/08 03:07:22;;;;;;;4.88;4.38;;;2.30;99.90;;;;;;5021426;28;20508;-50
2021/05/08 03:09:47;;;;;;;4.60;4.10;;;2.30;99.90;;;;;;5022459;28;20034;-50
2021/05/08 03:12:13;;;;;;;6.63;4.80;;;2.30;99.90;;;;;;5021945;28;20033;-50
2021/05/08 03:14:39;;;;;;;11.63;5.85;;;2.30;99.90;;;;;;5021524;28;20400;-51
2021/05/08 03:17:05;;;;;;;11.02;5.03;;;2.30;99.90;;;;;;5020926;28;20109;-49
2021/05/08 03:19:31;;;;;;;9.38;5.05;;;2.30;99.90;;;;;;5021143;28;20072;-50
2021/05/08 03:21:56;;;;;;;6.32;5.28;;;2.40;99.90;;;;;;5021269;28;20061;-54
2021/05/08 03:24:22;;;;;;;10.48;5.72;;;2.30;99.90;;;;;;5021513;28;20034;-51
2021/05/08 03:26:48;;;;;;;7.53;5.00;;;2.30;99.90;;;;;;5021390;28;20080;-52
2021/05/08 03:29:14;;;;;;;7.50;5.18;;;2.30;99.90;;;;;;5020861;28;20101;-51
2021/05/08 03:31:39;;;;;;;13.50;5.22;;;2.30;99.90;;;;;;5021439;28;20021;-50
2021/05/08 03:34:05;;;;;;;10.10;5.53;;;2.30;99.90;;;;;;5020996;28;20033;-51
2021/05/08 03:36:30;;;;;;;10.48;4.25;;;2.30;99.90;;;;;;5020744;28;20127;-52
2021/05/08 03:38:56;;;;;;;9.60;4.72;;;2.30;99.90;;;;;;5021307;28;20037;-50
2021/05/08 03:41:22;;;;;;;10.57;5.22;;;2.30;99.90;;;;;;5020958;28;20042;-50
2021/05/08 03:43:48;;;;;;;9.02;5.03;;;2.30;99.90;;;;;;5021119;28;20071;-49
2021/05/08 03:46:14;;;;;;;6.20;3.90;;;2.30;99.90;;;;;;5020674;28;20091;-54
2021/05/08 03:48:39;;;;;;;8.80;5.18;;;2.30;99.90;;;;;;5020912;28;20029;-50
2021/05/08 03:51:05;;;;;;;13.80;5.18;;;2.20;99.90;;;;;;5019307;28;20021;-49
2021/05/08 03:53:31;;;;;;;5.30;4.15;;;2.20;99.90;;;;;;5020420;28;20053;-49
2021/05/08 03:55:56;;;;;;;8.55;5.00;;;2.20;99.90;;;;;;5022025;28;20029;-49
2021/05/08 03:58:28;;;;;;;7.60;4.65;;;2.20;99.90;;;;;;5019428;28;20036;-50
2021/05/08 04:00:54;;;;;;;6.75;4.25;;;2.20;99.90;;;;;;5021041;28;20017;-50
2021/05/08 04:03:20;;;;;;;7.90;4.38;;;2.20;99.90;;;;;;5021299;28;20026;-49
2021/05/08 04:05:45;;;;;;;7.55;5.38;;;2.20;99.90;;;;;;5021018;28;20377;-51
2021/05/08 04:08:12;;;;;;;7.95;4.80;;;2.20;99.90;;;;;;5021252;28;20434;-51
2021/05/08 04:10:38;;;;;;;11.40;5.43;;;2.20;99.90;;;;;;5020832;28;20428;-50
2021/05/08 04:13:03;;;;;;;7.75;4.25;;;2.20;99.90;;;;;;5020605;28;20021;-50
2021/05/08 04:15:29;;;;;;;9.02;5.32;;;2.20;99.90;;;;;;5020407;28;20014;-50
2021/05/08 04:17:54;;;;;;;12.13;5.38;;;2.20;99.90;;;;;;5020554;28;20030;-50
2021/05/08 04:20:20;;;;;;;10.45;5.30;;;2.20;99.90;;;;;;5020259;28;20595;-53
2021/05/08 04:22:45;;;;;;;4.85;4.45;;;2.20;99.90;;;;;;5020423;28;20542;-52
2021/05/08 04:25:11;;;;;;;8.38;5.15;;;2.20;99.90;;;;;;5020101;28;20037;-50
2021/05/08 04:27:37;;;;;;;9.90;5.22;;;2.20;99.90;;;;;;5020511;28;20025;-52
2021/05/08 04:30:04;;;;;;;8.00;4.93;;;2.30;99.90;;;;;;5020552;28;20449;-49
2021/05/08 04:32:29;;;;;;;10.55;5.60;;;2.30;99.90;;;;;;5020291;28;20037;-51
2021/05/08 04:34:55;;;;;;;7.93;5.47;;;2.30;99.90;;;;;;5018966;28;20100;-51
2021/05/08 04:37:21;;;;;;;15.40;5.47;;;2.30;99.90;;;;;;5019820;28;20072;-51
2021/05/08 04:39:46;;;;;;;10.43;5.55;;;2.30;99.90;;;;;;5019829;28;20229;-52
2021/05/08 04:42:12;;;;;;;9.07;4.70;;;2.30;99.90;;;;;;5020567;28;20064;-53
2021/05/08 04:44:37;;;;;;;10.88;5.03;;;2.30;99.90;;;;;;5019953;28;20026;-50
2021/05/08 04:47:04;;;;;;;9.38;5.65;;;2.30;99.90;;;;;;5019786;28;20026;-51
2021/05/08 04:49:30;;;;;;;7.97;4.97;;;2.40;99.90;;;;;;5018931;28;20072;-51
2021/05/08 04:51:55;;;;;;;11.43;5.57;;;2.40;99.90;;;;;;5019884;28;20053;-53
2021/05/08 04:54:21;;;;;;;13.07;5.43;;;2.40;99.90;;;;;;5020662;28;20034;-50
2021/05/08 04:56:48;;;;;;;7.32;4.90;;;2.40;99.90;;;;;;5019805;28;20034;-52
2021/05/08 04:59:14;;;;;;;9.55;5.32;;;2.50;99.90;;;;;;5018541;28;20391;-52
2021/05/08 05:01:39;;;;;;;10.07;6.10;;;2.50;99.90;;;;;;5019881;28;20029;-51
2021/05/08 05:04:05;;;;;;;11.15;6.40;;;2.50;99.90;;;;;;5018770;28;20064;-51
2021/05/08 05:06:31;;;;;;;9.13;6.47;;;2.60;99.90;;;;;;5020304;28;20041;-54
2021/05/08 05:08:57;;;;;;;9.88;6.00;;;2.70;99.90;;;;;;5019566;28;20038;-50
2021/05/08 05:11:23;;;;;;;8.52;5.55;;;2.70;99.90;;;;;;5019609;28;20038;-51
2021/05/08 05:13:49;;;;;;;13.07;6.57;;;2.80;99.90;;;;;;5019795;28;20030;-50
2021/05/08 05:16:15;;;;;;;10.73;6.78;;;2.80;99.90;;;;;;5019220;28;20463;-51
2021/05/08 05:18:40;;;;;;;11.52;5.88;;;2.90;99.90;;;;;;5019381;28;20037;-51
2021/05/08 05:21:06;;;;;;;10.88;7.28;;;2.90;99.90;;;;;;5019197;28;20075;-51
2021/05/08 05:23:32;;;;;;;7.63;5.97;;;3.00;99.90;;;;;;5019023;28;20060;-51
2021/05/08 05:25:57;;;;;;;13.70;7.93;;;3.10;99.90;;;;;;5019786;28;20049;-50
2021/05/08 05:28:27;;;;;;;12.98;8.25;;;3.10;99.90;;;;;;5019356;28;20157;-50
2021/05/08 05:30:54;;;;;;;15.73;8.73;;;3.20;99.90;;;;;;5018794;28;20044;-52
2021/05/08 05:33:20;;;;;;;11.98;7.40;;;3.30;99.90;;;;;;5019200;28;20488;-50
2021/05/08 05:35:47;;;;;;;15.43;9.15;;;3.40;99.90;;;;;;5018876;28;20041;-52
2021/05/08 05:38:13;;;;;;;19.10;9.43;;;3.50;99.90;;;;;;5018806;28;20036;-50
2021/05/08 05:40:39;;;;;;;12.70;7.95;;;3.60;99.90;;;;;;5019252;28;20030;-52
2021/05/08 05:43:05;;;;;;;13.18;8.07;;;3.70;99.90;;;;;;5019288;28;20026;-50
2021/05/08 05:45:30;;;;;;;14.38;8.25;;;3.80;99.90;;;;;;5017999;28;20045;-52
2021/05/08 05:47:57;;;;;;;13.10;8.45;;;3.90;99.90;;;;;;5015849;28;20030;-52
2021/05/08 05:50:24;;;;;;;13.63;8.07;;;4.00;99.90;;;;;;5016012;28;20132;-54
2021/05/08 05:52:53;;;;;;;18.08;8.25;;;4.00;99.90;;;;;;5018528;28;20166;-51
2021/05/08 05:55:18;;;;;;;15.35;7.88;;;4.10;99.90;;;;;;5019374;28;20512;-53
2021/05/08 05:57:44;;;;;;;11.80;7.43;;;4.20;99.90;;;;;;5019257;28;20044;-52
2021/05/08 06:00:10;;;;;;;13.90;7.30;;;4.30;99.90;;;;;;5018463;28;20033;-54
2021/05/08 06:02:36;;;;;;;10.05;7.72;;;4.40;99.90;;;;;;5019010;28;20586;-53
2021/05/08 06:05:01;;;;;;;15.35;7.97;;;4.50;99.90;;;;;;5018628;28;20053;-51
2021/05/08 06:07:27;;;;;;;15.48;8.60;;;4.70;99.90;;;;;;5017808;28;20053;-51
2021/05/08 06:09:52;;;;;;;10.75;7.15;;;4.80;99.90;;;;;;5019476;28;20080;-52
2021/05/08 06:12:18;;;;;;;10.20;7.25;;;4.90;99.90;;;;;;5018809;28;20034;-51
2021/05/08 06:14:43;;;;;;;18.20;7.80;;;5.10;99.90;;;;;;5018723;28;20040;-51
2021/05/08 06:17:09;;;;;;;12.48;6.47;;;5.30;99.90;;;;;;5019368;28;20033;-52
2021/05/08 06:19:34;;;;;;;10.70;6.03;;;5.50;99.90;;;;;;5018552;28;20036;-51
2021/05/08 06:22:00;;;;;;;15.05;5.70;;;5.70;99.90;;;;;;5018660;28;20048;-51
2021/05/08 06:24:25;;;;;;;8.82;5.75;;;5.90;99.90;;;;;;5018537;28;20029;-52
2021/05/08 06:26:51;;;;;;;13.27;5.70;;;6.10;99.90;;;;;;5019442;28;20032;-54
2021/05/08 06:29:16;;;;;;;14.93;6.80;;;6.40;99.90;;;;;;5018222;28;20502;-51
2021/05/08 06:31:42;;;;;;;8.82;5.82;;;6.60;99.90;;;;;;5018976;28;20032;-55
2021/05/08 06:34:08;;;;;;;10.48;5.53;;;6.90;99.90;;;;;;5018911;28;20143;-53
2021/05/08 06:36:33;;;;;;;12.27;5.13;;;7.10;99.90;;;;;;5017308;28;20046;-51
2021/05/08 06:38:59;;;;;;;12.07;5.30;;;7.30;99.90;;;;;;5017724;28;20121;-54
2021/05/08 06:41:24;;;;;;;11.50;4.72;;;7.50;99.90;;;;;;5018590;28;20093;-51
2021/05/08 06:43:50;;;;;;;10.60;5.20;;;7.80;99.90;;;;;;5018330;28;20503;-52
2021/05/08 06:46:16;;;;;;;8.90;4.57;;;8.00;99.90;;;;;;5019485;28;20021;-49
2021/05/08 06:48:41;;;;;;;11.10;4.25;;;8.20;99.90;;;;;;5018035;28;20036;-49
2021/05/08 06:51:08;;;;;;;7.43;4.28;;;8.40;99.90;;;;;;5017404;28;20028;-49
2021/05/08 06:53:34;;;;;;;8.68;3.72;;;8.60;99.90;;;;;;5017814;28;20056;-49
2021/05/08 06:56:00;;;;;;;13.90;3.90;;;8.80;99.90;;;;;;5018221;28;20014;-50
2021/05/08 06:58:26;;;;;;;9.73;3.75;;;9.00;99.90;;;;;;5018573;28;20100;-51
2021/05/08 07:00:51;;;;;;;6.78;3.38;;;9.20;99.90;;;;;;5018146;28;20029;-51
2021/05/08 07:03:17;;;;;;;10.65;4.30;;;9.40;99.90;;;;;;5017297;28;20041;-50
2021/05/08 07:05:43;;;;;;;5.30;3.60;;;9.50;99.90;;;;;;5017540;28;20033;-52
2021/05/08 07:08:10;;;;;;;7.88;4.07;;;9.70;99.90;;;;;;5018687;28;20026;-48
2021/05/08 07:10:47;;;;;;;4.80;3.63;;;9.90;99.90;;;;;;5017573;28;20024;-53
2021/05/08 07:13:13;;;;;;;;;;;10.10;99.90;;;;;;5021484;28;20104;-54
2021/05/08 07:15:38;;;;;;;7.97;3.73;;;10.30;99.90;;;;;;5018044;28;19980;-49
2021/05/08 07:18:06;;;;;;;7.03;3.03;;;10.50;99.90;;;;;;5018082;28;20308;-49
2021/05/08 07:20:33;;;;;;;8.30;2.70;;;10.60;99.90;;;;;;5017425;28;20040;-49
2021/05/08 07:22:59;;;;;;;5.55;2.97;;;10.70;99.90;;;;;;5016931;28;20515;-50
2021/05/08 07:25:25;;;;;;;12.35;3.85;;;10.80;99.90;;;;;;5017005;28;20610;-49
2021/05/08 07:27:51;;;;;;;7.80;2.53;;;10.70;99.90;;;;;;5017079;28;20507;-51
2021/05/08 07:30:17;;;;;;;6.10;3.63;;;10.60;99.90;;;;;;5016555;28;20428;-50
2021/05/08 07:32:43;;;;;;;8.00;3.40;;;10.70;99.90;;;;;;5017126;28;20029;-49
2021/05/08 07:35:09;;;;;;;8.48;3.22;;;10.80;99.90;;;;;;5039582;23;20095;-49
2021/05/08 07:37:35;;;;;;;6.07;2.55;;;11.00;99.90;;;;;;4996906;28;20050;-50
2021/05/08 07:40:01;;;;;;;8.60;2.85;;;11.20;99.90;;;;;;4998415;28;20389;-49
2021/05/08 07:42:27;;;;;;;8.70;2.45;;;11.30;99.90;;;;;;4999329;28;20021;-47
2021/05/08 07:44:52;;;;;;;4.47;2.25;;;11.20;99.90;;;;;;4998688;28;20552;-50
2021/05/08 07:47:19;;;;;;;5.22;2.38;;;11.50;99.90;;;;;;5008030;28;20014;-51
2021/05/08 07:49:45;;;;;;;6.22;2.22;;;11.90;99.90;;;;;;5008584;28;20030;-51
2021/05/08 07:52:11;;;;;;;6.55;2.22;;;12.20;99.90;;;;;;5007928;28;20160;-51
2021/05/08 07:54:37;;;;;;;6.40;2.35;;;12.50;99.90;;;;;;5009184;28;20080;-46
2021/05/08 07:57:03;;;;;;;6.50;2.38;;;12.80;99.90;;;;;;5009642;28;20022;-54
2021/05/08 07:59:29;;;;;;;7.60;2.35;;;13.20;99.90;;;;;;5008703;28;20026;-52
2021/05/08 08:01:54;;;;;;;3.13;1.95;;;13.30;99.90;;;;;;5010442;28;20042;-49
2021/05/08 08:04:20;;;;;;;5.63;2.22;;;13.60;99.90;;;;;;5008089;28;20538;-49
2021/05/08 08:06:45;;;;;;;6.22;3.17;;;13.70;99.90;;;;;;5010319;28;20053;-51
2021/05/08 08:09:11;;;;;;;5.97;2.58;;;13.60;99.90;;;;;;5008564;28;20030;-51
2021/05/08 08:11:37;;;;;;;9.27;2.20;;;13.40;99.90;;;;;;5004315;28;20022;-48
2021/05/08 08:14:03;;;;;;;3.92;2.53;;;13.50;99.90;;;;;;5009865;28;20117;-48
2021/05/08 08:16:32;;;;;;;6.78;2.45;;;13.70;99.90;;;;;;5009636;28;20033;-47
2021/05/08 08:18:57;;;;;;;6.38;1.75;;;13.80;99.90;;;;;;5008185;28;20030;-52
2021/05/08 08:21:23;;;;;;;6.07;2.28;;;13.80;98.80;;;;;;5007839;28;20037;-48
2021/05/08 08:23:48;;;;;;;6.97;2.15;;;13.90;98.90;;;;;;5009013;28;20052;-49
2021/05/08 08:26:14;;;;;;;4.65;2.25;;;13.90;99.90;;;;;;5008613;28;20026;-50
2021/05/08 08:28:40;;;;;;;9.30;2.92;;;13.90;99.50;;;;;;5008026;28;20088;-49
2021/05/08 08:31:06;;;;;;;6.10;2.10;;;13.90;99.90;;;;;;5007531;28;20041;-47
2021/05/08 08:33:32;;;;;;;5.10;1.88;;;13.90;98.40;;;;;;5009643;28;20022;-47
2021/05/08 08:35:57;;;;;;;5.55;2.35;;;14.10;99.40;;;;;;5007176;28;20034;-52
2021/05/08 08:38:23;;;;;;;4.07;1.77;;;14.30;97.80;;;;;;5007313;28;20022;-51
2021/05/08 08:40:49;;;;;;;4.03;1.90;;;14.40;96.20;;;;;;5005647;28;20022;-49
2021/05/08 08:43:15;;;;;;;4.50;1.88;;;14.60;97.50;;;;;;5006665;28;20030;-55
2021/05/08 08:45:41;;;;;;;3.47;1.58;;;14.70;94.40;;;;;;5008067;28;20542;-48
2021/05/08 08:48:07;;;;;;;5.22;1.95;;;15.00;95.20;;;;;;5005324;28;20521;-48
2021/05/08 08:50:36;;;;;;;4.22;1.83;;;15.00;91.90;;;;;;5008124;28;20103;-48
2021/05/08 08:53:02;;;;;;;4.20;1.58;;;14.90;93.00;;;;;;5008066;28;20373;-48
2021/05/08 08:55:28;;;;;;;5.35;2.03;;;14.90;94.10;;;;;;5004666;28;20392;-50
2021/05/08 08:57:55;;;;;;;8.25;1.77;;;14.90;91.90;;;;;;5008176;28;20026;-47
2021/05/08 09:00:21;;;;;;;5.97;1.65;;;15.00;94.20;;;;;;5006440;28;20052;-48
2021/05/08 09:02:49;;;;;;;5.93;2.42;;;14.80;93.90;;;;;;5008900;28;20042;-46
2021/05/08 09:05:17;;;;;;;4.80;1.90;;;14.90;93.60;;;;;;5008025;28;20564;-46
2021/05/08 09:07:45;;;;;;;6.50;2.03;;;15.10;91.80;;;;;;5008592;28;20030;-50
2021/05/08 09:10:30;;;;;;;3.03;1.80;;;15.10;85.30;;;;;;5007747;28;20076;-46
2021/05/08 09:12:58;;;;;;;2.33;1.23;;;14.50;81.80;;;;;;5008518;28;20021;-45
2021/05/08 09:15:34;;;;;;;5.88;1.52;;;14.50;90.20;;;;;;5008650;28;20124;-46
2021/05/08 09:18:00;;;;;;;6.60;1.42;;;14.60;87.40;;;;;;5008420;28;20451;-45
2021/05/08 09:20:44;;;;;;;4.20;1.60;;;14.50;85.50;;;;;;5007918;28;20403;-44
2021/05/08 09:23:17;;;;;;;4.82;2.15;;;14.50;90.10;;;;;;5008499;28;20578;-45
2021/05/08 09:25:55;;;;;;;2.88;1.95;;;14.50;89.90;;;;;;5008564;28;20084;-47
2021/05/08 09:28:21;;;;;;;5.22;2.05;;;14.50;85.90;;;;;;5007030;28;20030;-46
2021/05/08 09:30:47;;;;;;;4.60;1.77;;;14.40;84.60;;;;;;5007961;28;20025;-46
2021/05/08 09:33:20;;;;;;;3.45;2.20;;;14.30;84.30;;;;;;5008015;28;20033;-45
2021/05/08 09:36:01;;;;;;;4.22;1.80;;;14.50;86.90;;;;;;5007679;28;20026;-48
2021/05/08 09:38:34;;;;;;;2.80;1.75;;;14.60;90.10;;;;;;5008295;28;20026;-48
2021/05/08 09:41:01;;;;;;;2.88;1.70;;;14.90;88.90;;;;;;5005651;28;20026;-46
2021/05/08 09:43:28;;;;;;;4.80;1.80;;;15.30;91.20;;;;;;5008357;28;20049;-45
2021/05/08 09:45:54;;;;;;;4.88;1.83;;;15.60;90.00;;;;;;5006933;28;20666;-45
2021/05/08 09:48:27;;;;;;;2.90;1.73;;;15.70;90.60;;;;;;5008350;28;20093;-46
2021/05/08 09:50:53;;;;;;;4.18;1.80;;;15.90;87.00;;;;;;5006348;28;20026;-46
2021/05/08 09:53:45;;;;;;;5.43;1.55;;;15.70;79.50;;;;;;5007686;28;20097;-47
2021/05/08 09:56:34;;;;;;;5.93;1.98;;;15.50;80.90;;;;;;5004237;28;20041;-46
2021/05/08 09:59:25;;;;;;;6.80;1.95;;;15.30;83.00;;;;;;5008847;28;20030;-46
2021/05/08 10:02:10;;;;;;;4.43;1.92;;;15.30;82.00;;;;;;5007427;28;20036;-46
2021/05/08 10:04:44;;;;;;;5.03;2.08;;;15.40;85.40;;;;;;5007784;28;20033;-46
2021/05/08 10:07:16;;;;;;;3.10;1.70;;;15.20;80.20;;;;;;5006900;28;20551;-44
2021/05/08 10:09:43;;;;;;;5.10;1.90;;;15.00;83.00;;;;;;5005045;28;20061;-48
2021/05/08 10:12:17;;;;;;;4.28;1.90;;;14.80;79.00;;;;;;5004514;28;20038;-46
2021/05/08 10:14:45;;;;;;;5.05;2.47;;;14.90;87.40;;;;;;5005802;28;20041;-47
2021/05/08 10:17:12;;;;;;;7.18;2.20;;;15.10;81.40;;;;;;5005781;28;20500;-49
2021/05/08 10:19:39;;;;;;;3.60;2.03;;;15.40;84.40;;;;;;5005705;28;20022;-50
2021/05/08 10:22:10;;;;;;;4.05;2.30;;;15.60;86.90;;;;;;5004710;28;20018;-45
2021/05/08 10:24:39;;;;;;;6.38;2.05;;;15.90;82.50;;;;;;5004452;28;20026;-49
2021/05/08 10:27:06;;;;;;;4.53;2.00;;;16.10;87.20;;;;;;5004416;28;20560;-50
2021/05/08 10:29:35;;;;;;;4.05;2.45;;;15.80;80.40;;;;;;5005129;28;20037;-49
2021/05/08 10:32:03;;;;;;;4.45;1.73;;;15.50;81.70;;;;;;5005539;28;20101;-48
2021/05/08 10:34:37;;;;;;;5.20;2.58;;;15.40;81.00;;;;;;5005109;28;20022;-49
2021/05/08 10:37:09;;;;;;;7.05;2.83;;;15.40;79.30;;;;;;5003868;28;20524;-47
2021/05/08 10:40:13;;;;;;;2.40;2.15;;;15.50;78.30;;;;;;5004417;28;20025;-50
2021/05/08 10:42:47;;;;;;;3.92;1.80;;;15.50;74.60;;;;;;5004379;28;20113;-49
2021/05/08 10:45:13;;;;;;;3.53;2.22;;;15.50;77.10;;;;;;5003015;28;20427;-49
2021/05/08 10:48:11;;;;;;;6.05;2.28;;;15.60;72.80;;;;;;5003685;28;20010;-46
2021/05/08 10:50:41;;;;;;;3.70;2.08;;;15.60;78.50;;;;;;4997833;28;20035;-48
2021/05/08 10:53:11;;;;;;;3.58;2.30;;;15.70;76.90;;;;;;5003119;28;20049;-49
2021/05/08 10:55:49;;;;;;;6.38;2.15;;;16.00;79.40;;;;;;5002785;28;20030;-49
2021/05/08 10:58:15;;;;;;;4.90;2.08;;;16.10;77.00;;;;;;5002415;28;20030;-46
2021/05/08 11:00:49;;;;;;;3.63;2.17;;;16.10;77.40;;;;;;5003633;28;20396;-46
2021/05/08 11:03:16;;;;;;;5.43;2.05;;;16.00;75.90;;;;;;5006822;28;20511;-45
2021/05/08 11:05:54;;;;;;;2.53;1.88;;;16.20;73.90;;;;;;5005578;28;20080;-48
2021/05/08 11:08:26;;;;;;;5.10;2.13;;;16.10;72.80;;;;;;5007202;28;20093;-47
2021/05/08 11:11:08;;;;;;;3.35;1.90;;;16.00;73.60;;;;;;5006833;28;20057;-47
2021/05/08 11:13:55;;;;;;;4.13;2.13;;;15.70;73.90;;;;;;5007113;28;20253;-45
2021/05/08 11:16:21;;;;;;;;;;;15.70;72.10;;;;;;5007423;28;20037;-46
2021/05/08 11:18:49;;;;;;;3.75;2.33;;;15.80;76.00;;;;;;5007228;28;20402;-46
2021/05/08 11:21:15;;;;;;;3.53;2.28;;;16.20;73.60;;;;;;5005820;28;20038;-45
2021/05/08 11:23:55;;;;;;;3.60;2.63;;;16.40;73.80;;;;;;5010845;28;20025;-47
2021/05/08 11:26:20;;;;;;;3.47;2.25;;;16.40;67.90;;;;;;5010612;28;20018;-47
2021/05/08 11:29:15;;;;;;;5.25;2.25;;;16.30;68.00;;;;;;5010570;28;20064;-45
2021/05/08 11:31:47;;;;;;;2.80;2.35;;;15.70;67.00;;;;;;5009088;28;20637;-45
2021/05/08 11:34:23;;;;;;;3.40;2.10;;;15.60;71.70;;;;;;5010839;28;20113;-48
2021/05/08 11:36:53;;;;;;;3.97;2.25;;;15.60;69.10;;;;;;5005769;28;20041;-46
2021/05/08 11:39:23;;;;;;;4.28;2.33;;;15.70;67.80;;;;;;5008594;28;20518;-47
2021/05/08 11:41:51;;;;;;;3.47;1.95;;;15.80;72.40;;;;;;5007050;28;20097;-45
2021/05/08 11:44:31;;;;;;;3.22;2.20;;;16.00;70.70;;;;;;5009807;28;20156;-48
2021/05/08 11:50:13;;;;;;;2.13;1.88;;;16.40;67.00;;;;;;5012832;28;20088;-49
2021/05/08 11:52:40;;;;;;;3.90;2.35;;;16.40;64.50;;;;;;5008476;28;20018;-49
2021/05/08 11:55:17;;;;;;;2.35;2.15;;;16.50;59.90;;;;;;5009809;28;20034;-46
2021/05/08 11:57:59;;;;;;;3.30;2.25;;;16.60;67.10;;;;;;5009088;28;20073;-46
2021/05/08 12:00:27;;;;;;;3.63;2.42;;;16.60;65.30;;;;;;5006703;28;20026;-47
2021/05/08 12:03:13;;;;;;;2.85;2.58;;;16.60;62.50;;;;;;5008741;28;20080;-46
2021/05/08 12:05:40;;;;;;;3.05;2.20;;;16.60;67.50;;;;;;5008506;28;20140;-48
2021/05/08 12:08:07;;;;;;;3.65;2.80;;;16.40;62.70;;;;;;5009908;28;20032;-45
2021/05/08 12:10:34;;;;;;;3.70;2.47;;;16.50;59.40;;;;;;5008373;28;20121;-47
2021/05/08 12:13:00;;;;;;;3.83;3.00;;;16.40;58.60;;;;;;5009436;28;20033;-46
2021/05/08 12:15:26;;;;;;;3.28;2.30;;;16.30;60.00;;;;;;5010036;28;20025;-46
2021/05/08 12:17:54;;;;;;;4.70;2.35;;;16.30;64.20;;;;;;5009999;28;20026;-47
2021/05/08 12:20:22;;;;;;;4.55;2.72;;;16.40;61.10;;;;;;5009055;28;20054;-48
2021/05/08 12:22:49;;;;;;;4.30;2.10;;;16.40;65.30;;;;;;5009767;28;20030;-47
2021/05/08 12:25:20;;;;;;;5.20;2.92;;;16.60;63.00;;;;;;5009714;28;20018;-45
2021/05/08 12:27:46;;;;;;;6.28;3.08;;;16.70;61.10;;;;;;5009378;28;20033;-49
2021/05/08 12:30:12;;;;;;;6.20;2.00;;;16.70;58.50;;;;;;5009532;28;20507;-49
2021/05/08 12:32:51;;;;;;;5.18;2.80;;;16.90;64.30;;;;;;5008132;28;20033;-48
2021/05/08 12:35:19;;;;;;;3.05;2.15;;;17.00;60.10;;;;;;5008757;28;20041;-51
2021/05/08 12:37:45;;;;;;;4.78;2.22;;;17.00;62.10;;;;;;5009100;28;20099;-49
2021/05/08 12:40:11;;;;;;;2.20;1.95;;;17.20;61.90;;;;;;5009367;28;20610;-46
2021/05/08 12:42:40;;;;;;;2.50;2.28;;;17.20;62.10;;;;;;5009423;28;20030;-46
2021/05/08 12:45:06;;;;;;;5.43;2.70;;;17.40;61.30;;;;;;5006269;28;20033;-45
2021/05/08 12:47:39;;;;;;;4.07;2.38;;;17.50;59.80;;;;;;5005933;28;20030;-49
2021/05/08 12:50:27;;;;;;;3.78;2.33;;;17.50;56.00;;;;;;5004469;28;20504;-47
2021/05/08 12:52:58;;;;;;;4.18;2.70;;;17.40;58.50;;;;;;5005383;28;20018;-46
2021/05/08 12:55:44;;;;;;;3.28;2.63;;;17.10;55.90;;;;;;5009366;28;20025;-45
2021/05/08 12:58:15;;;;;;;3.90;2.30;;;16.90;59.00;;;;;;5009289;28;20061;-47